»·PEaware :: N2Q KPSP-KWJF

N2Q :: KPSP-KWJF

FLIGHT INFORMATION

Flight Status: Arrived
Operator: Privately registered:
United States
More flights under this callsign
Pilot: Anonymous 13363 (13363)
Aircraft: Unknown
(KODI)
More flights by this aircraft type
Origin: KPSP Palm Springs Intl
United States
Destination: KWJF Gen Fox
United States
More flights between these airports :: More routes between these airports
Route: CATH1 PSP V137 PMD
File this flight plan on PilotEdge
Remarks:
Altitude:
(Current/Filed)
18,000ft
Speed:
(Current/Filed)
260kts
Departed: 19-Dec-17 09:11 PM
Arrived: 19-Dec-17 10:01 PM
Distance/Time
Traveled:
101nm/0:50
Distance/Time
To Go:
Arrived

Flight Plot

Page will automatically refresh every two minutes.

Flight plan parsing failed; only flown route is shown


Map Options




Map Legend


Flown Route
Filed Route
Departure Airport
Arrival Airport
Navaid (VOR, NDB)
Fix

Horizontal Profiles

Position Reports

Time Latitude Longitude Heading Altitude Ground
Speed
19-Dec-17 21:05 33.822491 -116.495988 233 481ft 0kts
19-Dec-17 21:06 33.822490 -116.495989 233 482ft 0kts
19-Dec-17 21:07 33.822490 -116.495989 233 482ft 0kts
19-Dec-17 21:08 33.822490 -116.495989 233 482ft 0kts
19-Dec-17 21:09 33.822490 -116.495989 233 482ft 0kts
19-Dec-17 21:10 33.822490 -116.495989 233 482ft 0kts
19-Dec-17 21:11 33.822490 -116.495989 233 482ft 0kts
19-Dec-17 21:12 33.822490 -116.495989 233 482ft 0kts
19-Dec-17 21:13 33.822490 -116.495989 233 482ft 0kts
19-Dec-17 21:14 33.822490 -116.495989 233 482ft 0kts
19-Dec-17 21:15 33.820681 -116.495438 143 481ft 9kts
19-Dec-17 21:16 33.818821 -116.497642 233 481ft 6kts
19-Dec-17 21:17 33.830381 -116.507347 324 1073ft 89kts
19-Dec-17 21:18 33.850552 -116.525517 318 2431ft 100kts
19-Dec-17 21:19 33.872024 -116.549232 316 4150ft 115kts
19-Dec-17 21:20 33.897378 -116.563315 39 6105ft 112kts
19-Dec-17 21:21 33.895778 -116.526485 102 8112ft 120kts
19-Dec-17 21:22 33.886043 -116.487804 101 10025ft 128kts
19-Dec-17 21:23 33.896436 -116.465341 333 11545ft 98kts
19-Dec-17 21:24 33.903470 -116.500324 283 13827ft 100kts
19-Dec-17 21:25 33.910666 -116.525909 290 15444ft 97kts
19-Dec-17 21:26 33.924733 -116.560980 293 17728ft 105kts
19-Dec-17 21:27 33.939858 -116.594158 296 18033ft 166kts
19-Dec-17 21:28 33.963253 -116.643095 297 18025ft 170kts
19-Dec-17 21:29 33.984364 -116.687052 297 18132ft 162kts
19-Dec-17 21:30 34.002941 -116.725764 297 18212ft 163kts
19-Dec-17 21:31 34.024954 -116.771845 297 18265ft 164kts
19-Dec-17 21:32 34.047704 -116.819464 297 18265ft 165kts
19-Dec-17 21:33 34.070477 -116.867188 297 18264ft 165kts
19-Dec-17 21:34 34.093299 -116.915084 297 18264ft 165kts
19-Dec-17 21:35 34.115340 -116.961400 297 18265ft 165kts
19-Dec-17 21:36 34.138056 -117.009197 297 18265ft 165kts
19-Dec-17 21:37 34.161081 -117.057679 297 18264ft 167kts
19-Dec-17 21:38 34.183883 -117.105815 297 18264ft 166kts
19-Dec-17 21:39 34.206125 -117.152813 297 18264ft 166kts
19-Dec-17 21:40 34.228775 -117.200746 297 17986ft 170kts
19-Dec-17 21:41 34.251470 -117.248909 297 17027ft 163kts
19-Dec-17 21:42 34.273637 -117.295944 297 16075ft 161kts
19-Dec-17 21:43 34.295734 -117.342873 297 15119ft 160kts
19-Dec-17 21:44 34.317426 -117.388997 297 14259ft 152kts
19-Dec-17 21:45 34.338195 -117.433246 297 13493ft 155kts
19-Dec-17 21:46 34.359828 -117.477611 299 12569ft 153kts
19-Dec-17 21:47 34.381193 -117.518876 299 12007ft 146kts
19-Dec-17 21:48 34.402850 -117.560619 299 11257ft 140kts
19-Dec-17 21:49 34.423330 -117.600132 299 10722ft 141kts
19-Dec-17 21:50 34.444767 -117.641674 302 10164ft 151kts
19-Dec-17 21:51 34.463242 -117.677300 302 9937ft 165kts
19-Dec-17 21:52 34.488115 -117.725347 302 9264ft 174kts
19-Dec-17 21:53 34.513437 -117.774429 302 8581ft 174kts
19-Dec-17 21:54 34.537642 -117.821428 302 7879ft 158kts
19-Dec-17 21:55 34.560537 -117.865906 302 7186ft 155kts
19-Dec-17 21:56 34.581682 -117.907030 302 6544ft 155kts
19-Dec-17 21:57 34.603731 -117.950052 303 5895ft 149kts
19-Dec-17 21:58 34.624443 -117.990240 301 5256ft 140kts
19-Dec-17 21:59 34.642574 -118.025627 298 4994ft 145kts
19-Dec-17 22:00 34.666408 -118.066074 320 4920ft 158kts
19-Dec-17 22:01 34.701436 -118.094592 328 4856ft 150kts
19-Dec-17 22:02 34.742731 -118.102639 351 4431ft 152kts
19-Dec-17 22:03 34.770370 -118.125588 260 3960ft 108kts
19-Dec-17 22:04 34.758260 -118.155683 246 3472ft 95kts
19-Dec-17 22:05 34.750903 -118.182046 248 2850ft 70kts
19-Dec-17 22:06 34.745258 -118.203080 249 2458ft 67kts
19-Dec-17 22:07 34.742000 -118.214198 225 2356ft 8kts
19-Dec-17 22:08 34.741140 -118.214860 214 2356ft 8kts
19-Dec-17 22:09 34.739480 -118.214188 81 2355ft 0kts
19-Dec-17 22:10 34.739481 -118.214179 81 2355ft 0kts
19-Dec-17 22:11 34.739481 -118.214179 81 2355ft 0kts

Navigation Log

Ident Type
Flight plan parsing failed, navigation log unavailable